Time;durP1;ratioP1;P1;durP2;ratioP2;P2;SDS_P1;SDS_P2;PMS_P1;PMS_P2;Temp;Humidity;BMP_temperature;BMP_pressure;BME280_temperature;BME280_humidity;BME280_pressure;Samples;Min_cycle;Max_cycle;Signal;HPM_P1;HPM_P2
2021/12/09 00:01:22;;;;;;;24.30;10.10;;;;;;;-145.18;100.00;60484.78;5024108;28;20314;-66
2021/12/09 00:03:49;;;;;;;31.17;12.13;;;;;;;-145.18;100.00;60484.78;5008910;28;20280;-66
2021/12/09 00:06:17;;;;;;;27.20;10.57;;;;;;;-145.18;100.00;60484.78;5021794;28;20279;-66
2021/12/09 00:08:43;;;;;;;24.87;10.60;;;;;;;-145.18;100.00;60484.78;5021409;28;20287;-66
2021/12/09 00:11:10;;;;;;;30.83;11.67;;;;;;;-145.18;100.00;60484.78;5021414;28;20260;-66
2021/12/09 00:13:35;;;;;;;24.87;10.17;;;;;;;-145.18;100.00;60484.78;5021434;28;20594;-66
2021/12/09 00:16:01;;;;;;;24.20;10.37;;;;;;;-145.18;100.00;60484.78;5021686;28;20265;-66
2021/12/09 00:18:27;;;;;;;22.80;9.70;;;;;;;-145.18;100.00;60484.78;5022294;28;20240;-66
2021/12/09 00:20:53;;;;;;;22.73;10.37;;;;;;;-145.18;100.00;60484.78;5021959;28;20268;-66
2021/12/09 00:23:19;;;;;;;24.67;10.03;;;;;;;-145.18;100.00;60484.78;5021906;28;20084;-65
2021/12/09 00:25:44;;;;;;;25.60;10.50;;;;;;;-145.18;100.00;60484.78;5024280;28;20088;-66
2021/12/09 00:28:10;;;;;;;25.73;9.97;;;;;;;-145.18;100.00;60484.78;5025694;28;20296;-66
2021/12/09 00:30:36;;;;;;;22.80;9.07;;;;;;;-145.18;100.00;60484.78;5026274;28;20079;-66
2021/12/09 00:33:05;;;;;;;20.20;10.00;;;;;;;-145.18;100.00;60484.78;5026050;28;20037;-66
2021/12/09 00:35:41;;;;;;;23.27;10.27;;;;;;;-145.18;100.00;60484.78;5025885;28;20116;-66
2021/12/09 00:38:09;;;;;;;23.13;9.83;;;;;;;-145.18;100.00;60484.78;5033335;28;20264;-66
2021/12/09 00:40:36;;;;;;;20.73;10.17;;;;;;;-145.18;100.00;60484.78;5025750;28;20292;-66
2021/12/09 00:43:03;;;;;;;27.50;10.27;;;;;;;-145.18;100.00;60484.78;5025106;28;20826;-66
2021/12/09 00:45:29;;;;;;;24.40;11.23;;;;;;;-145.18;100.00;60484.78;5025146;28;20771;-66
2021/12/09 00:47:55;;;;;;;22.07;8.90;;;;;;;-145.18;100.00;60484.78;5025050;28;20363;-66
2021/12/09 00:50:22;;;;;;;22.30;9.83;;;;;;;-145.18;100.00;60484.78;5025227;28;20347;-66
2021/12/09 00:52:47;;;;;;;33.80;11.50;;;;;;;-145.18;100.00;60484.78;5027540;28;20500;-66
2021/12/09 00:55:15;;;;;;;21.87;9.33;;;;;;;-145.18;100.00;60484.78;5015118;28;20347;-66
2021/12/09 00:57:41;;;;;;;23.70;10.07;;;;;;;-145.18;100.00;60484.78;5030991;28;20167;-66
2021/12/09 01:00:17;;;;;;;22.63;10.00;;;;;;;-145.18;100.00;60484.78;5025168;28;20268;-66
2021/12/09 01:02:43;;;;;;;21.40;9.20;;;;;;;-145.18;100.00;60484.78;5024980;28;20276;-66
2021/12/09 01:05:10;;;;;;;25.67;10.07;;;;;;;-145.18;100.00;60484.78;5020756;28;20288;-66
2021/12/09 01:07:37;;;;;;;24.87;10.50;;;;;;;-145.18;100.00;60484.78;5024397;28;20288;-66
2021/12/09 01:10:07;;;;;;;30.17;10.93;;;;;;;-145.18;100.00;60484.78;5025106;28;20346;-66
2021/12/09 01:12:32;;;;;;;22.63;9.67;;;;;;;-145.18;100.00;60484.78;5024708;28;20272;-66
2021/12/09 01:14:58;;;;;;;25.73;10.70;;;;;;;-145.18;100.00;60484.78;5025056;28;20276;-66
2021/12/09 01:17:24;;;;;;;23.43;11.03;;;;;;;-145.18;100.00;60484.78;5022985;28;20117;-66
2021/12/09 01:19:52;;;;;;;21.73;9.80;;;;;;;-145.18;100.00;60484.78;5024962;28;20029;-66
2021/12/09 01:22:18;;;;;;;23.17;10.23;;;;;;;-145.18;100.00;60484.78;5024714;28;20425;-66
2021/12/09 01:24:44;;;;;;;23.73;10.30;;;;;;;-145.18;100.00;60484.78;5024566;28;20268;-66
2021/12/09 01:27:10;;;;;;;24.30;10.17;;;;;;;-145.18;100.00;60484.78;5024506;28;20037;-66
2021/12/09 01:29:39;;;;;;;29.90;10.57;;;;;;;-145.18;100.00;60484.78;5024222;28;20044;-66
2021/12/09 01:32:07;;;;;;;21.60;9.33;;;;;;;-145.18;100.00;60484.78;5031599;28;20051;-66
2021/12/09 01:34:36;;;;;;;24.00;9.67;;;;;;;-145.18;100.00;60484.78;5024459;28;20259;-66
2021/12/09 01:37:01;;;;;;;23.33;10.27;;;;;;;-145.18;100.00;60484.78;5028702;28;20311;-66
2021/12/09 01:39:28;;;;;;;22.63;9.73;;;;;;;-145.18;100.00;60484.78;5023774;28;20632;-66
2021/12/09 01:41:54;;;;;;;20.63;9.47;;;;;;;-145.18;100.00;60484.78;5024649;28;20048;-66
2021/12/09 01:44:21;;;;;;;22.80;10.10;;;;;;;-145.18;100.00;60484.78;5024392;28;21045;-66
2021/12/09 01:46:47;;;;;;;19.00;9.60;;;;;;;-145.18;100.00;60484.78;5024029;28;20292;-66
2021/12/09 01:49:12;;;;;;;23.37;10.03;;;;;;;-145.18;100.00;60484.78;5024128;28;20295;-66
2021/12/09 01:51:38;;;;;;;21.30;9.17;;;;;;;-145.18;100.00;60484.78;5024083;28;20140;-66
2021/12/09 01:54:03;;;;;;;22.67;9.83;;;;;;;-145.18;100.00;60484.78;5024414;28;20512;-66
2021/12/09 01:56:29;;;;;;;22.17;9.77;;;;;;;-145.18;100.00;60484.78;5023808;28;20399;-66
2021/12/09 01:59:06;;;;;;;23.17;10.43;;;;;;;-145.18;100.00;60484.78;5023450;28;20030;-66
2021/12/09 02:01:33;;;;;;;22.63;10.77;;;;;;;-145.18;100.00;60484.78;5027539;28;20050;-67
2021/12/09 02:04:04;;;;;;;22.07;9.77;;;;;;;-145.18;100.00;60484.78;5022988;28;20362;-67
2021/12/09 02:06:31;;;;;;;21.53;8.90;;;;;;;-145.18;100.00;60484.78;5021528;28;20268;-67
2021/12/09 02:08:56;;;;;;;23.27;10.37;;;;;;;-145.18;100.00;60484.78;5021811;28;20342;-67
2021/12/09 02:11:24;;;;;;;22.03;9.00;;;;;;;-145.18;100.00;60484.78;5021753;28;20276;-67
2021/12/09 02:13:52;;;;;;;23.73;9.40;;;;;;;-145.18;100.00;60484.78;5022278;28;20029;-67
2021/12/09 02:16:17;;;;;;;21.90;10.00;;;;;;;-145.18;100.00;60484.78;5021446;28;20291;-66
2021/12/09 02:18:43;;;;;;;26.53;10.43;;;;;;;-145.18;100.00;60484.78;5023987;28;20264;-66
2021/12/09 02:21:17;;;;;;;23.00;10.27;;;;;;;-145.18;100.00;60484.78;5022229;28;20037;-67
2021/12/09 02:24:00;;;;;;;24.67;9.83;;;;;;;-145.18;100.00;60484.78;5004062;28;20095;-67
2021/12/09 02:26:30;;;;;;;21.03;9.77;;;;;;;-145.18;100.00;60484.78;5022178;28;20308;-67
2021/12/09 02:28:56;;;;;;;19.43;10.07;;;;;;;-145.18;100.00;60484.78;5021952;28;20414;-67
2021/12/09 02:31:23;;;;;;;19.83;9.77;;;;;;;-145.18;100.00;60484.78;5021660;28;20348;-67
2021/12/09 02:33:48;;;;;;;22.73;10.30;;;;;;;-145.18;100.00;60484.78;5022062;28;20682;-66
2021/12/09 02:36:14;;;;;;;23.83;10.00;;;;;;;-145.18;100.00;60484.78;5021916;28;20271;-66
2021/12/09 02:38:44;;;;;;;24.17;10.10;;;;;;;-145.18;100.00;60484.78;5021995;28;20108;-66
2021/12/09 02:41:20;;;;;;;26.43;11.00;;;;;;;-145.18;100.00;60484.78;5021229;28;20061;-66
2021/12/09 02:43:49;;;;;;;23.33;10.03;;;;;;;-145.18;100.00;60484.78;5021431;28;20268;-67
2021/12/09 02:46:16;;;;;;;26.00;10.43;;;;;;;-145.18;100.00;60484.78;5020397;28;20275;-66
2021/12/09 02:48:42;;;;;;;28.57;11.43;;;;;;;-145.18;100.00;60484.78;5010561;28;20346;-66
2021/12/09 02:51:08;;;;;;;28.60;11.00;;;;;;;-145.18;100.00;60484.78;5021198;28;20268;-66
2021/12/09 02:53:35;;;;;;;22.93;10.53;;;;;;;-145.18;100.00;60484.78;5021823;28;20029;-66
2021/12/09 02:56:02;;;;;;;31.73;11.63;;;;;;;-145.18;100.00;60484.78;5021492;28;20025;-66
2021/12/09 02:58:28;;;;;;;25.83;10.80;;;;;;;-145.18;100.00;60484.78;5021633;28;20260;-66
2021/12/09 03:01:02;;;;;;;23.30;10.87;;;;;;;-145.18;100.00;60484.78;5021261;28;20268;-66
2021/12/09 03:03:28;;;;;;;24.97;10.87;;;;;;;-145.18;100.00;60484.78;5021789;28;20040;-66
2021/12/09 03:05:56;;;;;;;25.63;10.80;;;;;;;-145.18;100.00;60484.78;5021347;28;20804;-66
2021/12/09 03:08:33;;;;;;;24.30;10.53;;;;;;;-145.18;100.00;60484.78;5017959;28;20147;-66
2021/12/09 03:11:12;;;;;;;27.23;10.97;;;;;;;-145.18;100.00;60484.78;5021255;28;20768;-66
2021/12/09 03:13:40;;;;;;;29.37;11.77;;;;;;;-145.18;100.00;60484.78;5021443;28;20499;-66
2021/12/09 03:16:07;;;;;;;23.97;11.07;;;;;;;-145.18;100.00;60484.78;5021394;28;20393;-66
2021/12/09 03:18:44;;;;;;;27.83;11.43;;;;;;;-145.18;100.00;60484.78;5021543;28;20314;-66
2021/12/09 03:21:25;;;;;;;29.30;12.43;;;;;;;-145.18;100.00;60484.78;5007557;28;20268;-66
2021/12/09 03:23:50;;;;;;;28.03;12.00;;;;;;;-145.18;100.00;60484.78;5019682;28;20287;-66
2021/12/09 03:26:18;;;;;;;29.07;12.53;;;;;;;-145.18;100.00;60484.78;5021044;28;20269;-66
2021/12/09 03:28:44;;;;;;;35.20;12.43;;;;;;;-145.18;100.00;60484.78;5021340;28;20503;-66
2021/12/09 03:31:10;;;;;;;28.43;12.17;;;;;;;-145.18;100.00;60484.78;5021249;28;20386;-66
2021/12/09 03:33:35;;;;;;;27.50;11.23;;;;;;;-145.18;100.00;60484.78;5020903;28;20915;-66
2021/12/09 03:36:04;;;;;;;31.53;11.60;;;;;;;-145.18;100.00;60484.78;5021293;28;20670;-66
2021/12/09 03:38:30;;;;;;;26.77;10.53;;;;;;;-145.18;100.00;60484.78;5020964;28;20022;-66
2021/12/09 03:40:56;;;;;;;25.33;11.77;;;;;;;-145.18;100.00;60484.78;5020554;28;20299;-66
2021/12/09 03:43:22;;;;;;;24.70;10.70;;;;;;;-145.18;100.00;60484.78;5020215;28;20315;-66
2021/12/09 03:45:50;;;;;;;23.93;11.07;;;;;;;-145.18;100.00;60484.78;5021312;28;20659;-66
2021/12/09 03:48:16;;;;;;;23.57;10.90;;;;;;;-145.18;100.00;60484.78;5020925;28;20300;-66
2021/12/09 03:50:43;;;;;;;24.53;11.53;;;;;;;-145.18;100.00;60484.78;5020741;28;20260;-66
2021/12/09 03:53:09;;;;;;;26.57;11.10;;;;;;;-145.18;100.00;60484.78;5020502;28;21212;-67
2021/12/09 03:55:35;;;;;;;25.97;11.97;;;;;;;-145.18;100.00;60484.78;5021788;28;20280;-66
2021/12/09 03:58:00;;;;;;;33.73;13.13;;;;;;;-145.18;100.00;60484.78;5022575;28;20030;-66
2021/12/09 04:00:28;;;;;;;28.30;10.63;;;;;;;-145.18;100.00;60484.78;5024872;28;20029;-66
2021/12/09 04:02:54;;;;;;;26.03;10.80;;;;;;;-145.18;100.00;60484.78;5027554;28;20060;-66
2021/12/09 04:05:19;;;;;;;26.07;11.27;;;;;;;-145.18;100.00;60484.78;5026130;28;20390;-66
2021/12/09 04:07:45;;;;;;;30.93;12.23;;;;;;;-145.18;100.00;60484.78;5026544;28;20037;-66
2021/12/09 04:10:10;;;;;;;26.67;10.70;;;;;;;-145.18;100.00;60484.78;5026730;28;20417;-66
2021/12/09 04:12:36;;;;;;;22.83;11.03;;;;;;;-145.18;100.00;60484.78;5026262;28;20033;-66
2021/12/09 04:15:02;;;;;;;24.63;10.33;;;;;;;-145.18;100.00;60484.78;5026210;28;20045;-66
2021/12/09 04:17:28;;;;;;;25.53;10.50;;;;;;;-145.18;100.00;60484.78;5026095;28;20029;-66
2021/12/09 04:19:53;;;;;;;30.07;10.63;;;;;;;-145.18;100.00;60484.78;5026209;28;20901;-66
2021/12/09 04:22:20;;;;;;;25.97;10.17;;;;;;;-145.18;100.00;60484.78;5026258;28;20033;-66
2021/12/09 04:24:47;;;;;;;25.87;11.40;;;;;;;-145.18;100.00;60484.78;5025929;28;20363;-66
2021/12/09 04:27:12;;;;;;;26.63;11.30;;;;;;;-145.18;100.00;60484.78;5034764;28;20295;-66
2021/12/09 04:29:38;;;;;;;28.03;11.00;;;;;;;-145.18;100.00;60484.78;5025665;28;20283;-66
2021/12/09 04:32:04;;;;;;;26.73;11.13;;;;;;;-145.18;100.00;60484.78;5025767;28;20037;-66
2021/12/09 04:34:30;;;;;;;29.83;11.90;;;;;;;-145.18;100.00;60484.78;5025122;28;20025;-66
2021/12/09 04:36:56;;;;;;;31.67;12.13;;;;;;;-145.18;100.00;60484.78;5025090;28;20367;-66
2021/12/09 04:39:21;;;;;;;34.00;11.73;;;;;;;-145.18;100.00;60484.78;5025190;28;20033;-66
2021/12/09 04:41:47;;;;;;;36.53;13.13;;;;;;;-145.18;100.00;60484.78;5029538;28;20083;-66
2021/12/09 04:44:12;;;;;;;29.90;12.37;;;;;;;-145.18;100.00;60484.78;5024725;28;20036;-66
2021/12/09 04:46:38;;;;;;;34.93;12.97;;;;;;;-145.18;100.00;60484.78;5025527;28;20025;-66
2021/12/09 04:49:05;;;;;;;31.97;12.53;;;;;;;-145.18;100.00;60484.78;5025345;28;20029;-66
2021/12/09 04:51:30;;;;;;;41.47;13.67;;;;;;;-145.18;100.00;60484.78;5022304;28;20037;-66
2021/12/09 04:53:56;;;;;;;40.20;13.20;;;;;;;-145.18;100.00;60484.78;5023877;28;20264;-66
2021/12/09 04:56:22;;;;;;;33.13;12.93;;;;;;;-145.18;100.00;60484.78;5024645;28;20034;-66
2021/12/09 04:58:48;;;;;;;32.17;12.83;;;;;;;-145.18;100.00;60484.78;5025430;28;20025;-66
2021/12/09 05:01:14;;;;;;;30.13;12.57;;;;;;;-145.18;100.00;60484.78;5022952;28;20299;-66
2021/12/09 05:03:44;;;;;;;33.37;13.17;;;;;;;-145.18;100.00;60484.78;5024590;28;20346;-66
2021/12/09 05:06:09;;;;;;;36.53;14.23;;;;;;;-145.18;100.00;60484.78;5025894;28;20268;-66
2021/12/09 05:08:37;;;;;;;45.57;17.60;;;;;;;-145.18;100.00;60484.78;5034773;28;20375;-66
2021/12/09 05:11:11;;;;;;;34.23;14.17;;;;;;;-145.18;100.00;60484.78;5023249;28;20533;-66
2021/12/09 05:13:39;;;;;;;36.33;13.90;;;;;;;-145.18;100.00;60484.78;5023851;28;20260;-65
2021/12/09 05:16:07;;;;;;;36.33;13.80;;;;;;;-145.18;100.00;60484.78;5023560;28;20964;-66
2021/12/09 05:18:37;;;;;;;39.57;14.63;;;;;;;-145.18;100.00;60484.78;5022662;28;20260;-66
2021/12/09 05:21:06;;;;;;;36.13;13.87;;;;;;;-145.18;100.00;60484.78;5022256;28;20364;-66
2021/12/09 05:23:32;;;;;;;38.17;13.23;;;;;;;-145.18;100.00;60484.78;5024099;28;20271;-66
2021/12/09 05:25:58;;;;;;;29.63;11.97;;;;;;;-145.18;100.00;60484.78;5023783;28;20264;-66
2021/12/09 05:28:31;;;;;;;35.30;13.20;;;;;;;-145.18;100.00;60484.78;5023914;28;20605;-66
2021/12/09 05:33:41;;;;;;;30.07;12.70;;;;;;;-145.18;100.00;60484.78;5022787;28;20648;-66
2021/12/09 05:36:07;;;;;;;35.93;12.57;;;;;;;-145.18;100.00;60484.78;5025089;28;22546;-68
2021/12/09 05:38:32;;;;;;;35.20;13.33;;;;;;;-145.18;100.00;60484.78;5023637;28;20344;-68
2021/12/09 05:40:58;;;;;;;32.40;12.83;;;;;;;-145.18;100.00;60484.78;5023900;28;20060;-68
2021/12/09 05:43:26;;;;;;;39.00;13.57;;;;;;;-145.18;100.00;60484.78;5024052;28;20032;-68
2021/12/09 05:45:51;;;;;;;40.20;15.27;;;;;;;-145.18;100.00;60484.78;5032365;28;20036;-68
2021/12/09 05:48:17;;;;;;;40.57;15.00;;;;;;;-145.18;100.00;60484.78;5024343;28;20447;-68
2021/12/09 05:50:43;;;;;;;48.37;16.97;;;;;;;-145.18;100.00;60484.78;5019440;28;20032;-68
2021/12/09 05:53:08;;;;;;;54.07;18.87;;;;;;;-145.18;100.00;60484.78;5026064;28;20033;-68
2021/12/09 05:55:34;;;;;;;42.37;15.17;;;;;;;-145.18;100.00;60484.78;5024082;28;20817;-68
2021/12/09 05:58:01;;;;;;;50.00;14.60;;;;;;;-145.18;100.00;60484.78;5023850;28;20420;-68
2021/12/09 06:00:27;;;;;;;37.17;14.63;;;;;;;-145.18;100.00;60484.78;5024017;28;20313;-68
2021/12/09 06:02:52;;;;;;;38.63;14.90;;;;;;;-145.18;100.00;60484.78;5013865;28;20669;-68
2021/12/09 06:05:18;;;;;;;38.47;13.93;;;;;;;-145.18;100.00;60484.78;5023511;28;20300;-68
2021/12/09 06:07:45;;;;;;;36.70;13.77;;;;;;;-145.18;100.00;60484.78;5023177;28;20037;-68
2021/12/09 06:10:11;;;;;;;33.87;13.33;;;;;;;-145.18;100.00;60484.78;5023762;28;20963;-68
2021/12/09 06:12:37;;;;;;;38.70;14.23;;;;;;;-145.18;100.00;60484.78;5023584;28;20264;-68
2021/12/09 06:15:04;;;;;;;35.70;13.03;;;;;;;-145.18;100.00;60484.78;5023738;28;20268;-68
2021/12/09 06:17:30;;;;;;;39.80;13.40;;;;;;;-145.18;100.00;60484.78;5032771;28;20268;-68
2021/12/09 06:19:55;;;;;;;37.83;13.13;;;;;;;-145.18;100.00;60484.78;5023521;28;20744;-68
2021/12/09 06:22:21;;;;;;;39.20;14.50;;;;;;;-145.18;100.00;60484.78;5023462;28;20674;-67
2021/12/09 06:24:46;;;;;;;51.93;16.50;;;;;;;-145.18;100.00;60484.78;5023235;28;20074;-68
2021/12/09 06:27:13;;;;;;;59.70;16.53;;;;;;;-145.18;100.00;60484.78;5023367;28;20052;-68
2021/12/09 06:29:39;;;;;;;55.40;16.97;;;;;;;-145.18;100.00;60484.78;5022801;28;20063;-68
2021/12/09 06:32:04;;;;;;;57.97;15.67;;;;;;;-145.18;100.00;60484.78;5022867;28;20280;-68
2021/12/09 06:34:30;;;;;;;71.53;18.70;;;;;;;-145.18;100.00;60484.78;5023147;28;20268;-68
2021/12/09 06:36:56;;;;;;;84.23;18.90;;;;;;;-145.18;100.00;60484.78;5028344;28;20063;-68
2021/12/09 06:39:22;;;;;;;69.97;20.63;;;;;;;-145.18;100.00;60484.78;5022464;28;20041;-68
2021/12/09 06:41:47;;;;;;;65.63;18.53;;;;;;;-145.18;100.00;60484.78;5022855;28;20029;-68
2021/12/09 06:44:13;;;;;;;61.83;16.63;;;;;;;-145.18;100.00;60484.78;5023278;28;20043;-68
2021/12/09 06:46:39;;;;;;;70.87;18.13;;;;;;;-145.18;100.00;60484.78;5021923;28;20037;-68
2021/12/09 06:49:05;;;;;;;70.77;19.07;;;;;;;-145.18;100.00;60484.78;5022394;28;20068;-68
2021/12/09 06:51:31;;;;;;;57.13;18.23;;;;;;;-145.18;100.00;60484.78;5019779;28;20040;-68
2021/12/09 06:53:57;;;;;;;70.07;20.47;;;;;;;-145.18;100.00;60484.78;5022472;28;20267;-68
2021/12/09 06:56:23;;;;;;;59.07;18.90;;;;;;;-145.18;100.00;60484.78;5022030;28;20033;-68
2021/12/09 06:58:49;;;;;;;70.77;20.63;;;;;;;-145.18;100.00;60484.78;5020340;28;20750;-68
2021/12/09 07:01:15;;;;;;;72.37;22.03;;;;;;;-145.18;100.00;60484.78;5017310;28;20275;-67
2021/12/09 07:03:40;;;;;;;70.07;19.77;;;;;;;-145.18;100.00;60484.78;5021511;28;20053;-67
2021/12/09 07:06:08;;;;;;;66.90;19.10;;;;;;;-145.18;100.00;60484.78;5021894;28;20660;-68
2021/12/09 07:08:42;;;;;;;57.60;19.13;;;;;;;-145.18;100.00;60484.78;5021808;28;20723;-68
2021/12/09 07:11:07;;;;;;;67.07;18.17;;;;;;;-145.18;100.00;60484.78;5013590;28;20339;-68
2021/12/09 07:13:33;;;;;;;63.83;17.60;;;;;;;-145.18;100.00;60484.78;5021536;28;20389;-67
2021/12/09 07:15:59;;;;;;;66.57;17.87;;;;;;;-145.18;100.00;60484.78;5021369;28;20173;-67
2021/12/09 07:18:25;;;;;;;56.73;17.40;;;;;;;-145.18;100.00;60484.78;5021011;28;20056;-67
2021/12/09 07:20:53;;;;;;;59.60;16.53;;;;;;;-145.18;100.00;60484.78;5015418;28;20268;-67
2021/12/09 07:23:18;;;;;;;75.17;19.13;;;;;;;-145.18;100.00;60484.78;5016968;28;20036;-68
2021/12/09 07:25:44;;;;;;;70.20;17.57;;;;;;;-145.18;100.00;60484.78;5020305;28;20347;-67
2021/12/09 07:28:09;;;;;;;64.80;18.20;;;;;;;-145.18;100.00;60484.78;5014427;28;20034;-67
2021/12/09 07:30:35;;;;;;;77.50;19.60;;;;;;;-145.18;100.00;60484.78;5016886;28;20069;-67
2021/12/09 07:33:00;;;;;;;76.40;18.97;;;;;;;-145.18;100.00;60484.78;5021140;28;20044;-67
2021/12/09 07:35:30;;;;;;;63.90;17.97;;;;;;;-145.18;100.00;60484.78;5026346;28;20025;-67
2021/12/09 07:37:59;;;;;;;75.37;18.50;;;;;;;-145.18;100.00;60484.78;5028153;28;20031;-68
2021/12/09 07:40:25;;;;;;;75.37;19.17;;;;;;;-145.18;100.00;60484.78;5027527;28;20270;-67
2021/12/09 07:42:50;;;;;;;72.77;19.20;;;;;;;-145.18;100.00;60484.78;5030705;28;20292;-68
2021/12/09 07:45:17;;;;;;;66.67;18.50;;;;;;;-145.18;100.00;60484.78;5027442;28;20017;-68
2021/12/09 07:47:44;;;;;;;71.93;18.03;;;;;;;-145.18;100.00;60484.78;5030845;28;20065;-68
2021/12/09 07:50:13;;;;;;;60.73;18.37;;;;;;;-145.18;100.00;60484.78;5027648;28;20271;-68
2021/12/09 07:52:42;;;;;;;67.80;18.53;;;;;;;-145.18;100.00;60484.78;5029869;28;20271;-68
2021/12/09 07:55:10;;;;;;;71.00;19.07;;;;;;;-145.18;100.00;60484.78;5028224;28;20823;-68
2021/12/09 07:57:36;;;;;;;67.73;18.53;;;;;;;-145.18;100.00;60484.78;5028253;28;20351;-68
2021/12/09 08:00:04;;;;;;;76.53;20.20;;;;;;;-145.18;100.00;60484.78;5027954;28;20334;-68
2021/12/09 08:02:29;;;;;;;78.33;20.40;;;;;;;-145.18;100.00;60484.78;5027451;28;20043;-68
2021/12/09 08:04:55;;;;;;;63.93;18.23;;;;;;;-145.18;100.00;60484.78;5027654;28;20288;-67
2021/12/09 08:07:20;;;;;;;64.50;18.90;;;;;;;-145.18;100.00;60484.78;5039335;28;20060;-68
2021/12/09 08:09:46;;;;;;;67.73;19.53;;;;;;;-145.18;100.00;60484.78;5028080;28;20026;-68
2021/12/09 08:12:11;;;;;;;71.67;19.80;;;;;;;-145.18;100.00;60484.78;5028065;28;20033;-67
2021/12/09 08:14:37;;;;;;;73.67;19.13;;;;;;;-145.18;100.00;60484.78;5027643;28;20037;-68
2021/12/09 08:17:12;;;;;;;70.90;18.90;;;;;;;-145.18;100.00;60484.78;5028350;28;20040;-68
2021/12/09 08:19:38;;;;;;;64.23;19.23;;;;;;;-145.18;100.00;60484.78;5016092;28;20108;-68
2021/12/09 08:22:04;;;;;;;63.73;18.07;;;;;;;-145.18;100.00;60484.78;5027654;28;20295;-68
2021/12/09 08:24:29;;;;;;;51.73;18.60;;;;;;;-145.18;100.00;60484.78;5027709;28;20443;-68
2021/12/09 08:26:55;;;;;;;51.37;16.50;;;;;;;-145.18;100.00;60484.78;5034777;28;20642;-68
2021/12/09 08:29:20;;;;;;;58.90;18.27;;;;;;;-145.18;100.00;60484.78;5028123;28;20056;-68
2021/12/09 08:31:46;;;;;;;54.33;18.90;;;;;;;-145.18;100.00;60484.78;5033920;28;20489;-65
2021/12/09 08:34:11;;;;;;;50.47;18.33;;;;;;;-145.18;100.00;60484.78;5028230;28;20036;-65
2021/12/09 08:36:37;;;;;;;56.47;17.17;;;;;;;-145.18;100.00;60484.78;5027832;28;20048;-65
2021/12/09 08:39:03;;;;;;;49.07;16.30;;;;;;;-145.18;100.00;60484.78;5028522;28;20025;-65
2021/12/09 08:41:29;;;;;;;45.23;16.23;;;;;;;-145.18;100.00;60484.78;5027534;28;20195;-65
2021/12/09 08:43:54;;;;;;;56.20;17.67;;;;;;;-145.18;100.00;60484.78;5027647;28;20351;-65
2021/12/09 08:46:19;;;;;;;42.67;15.60;;;;;;;-145.18;100.00;60484.78;5026230;28;20172;-65
2021/12/09 08:48:46;;;;;;;42.57;15.97;;;;;;;-145.18;100.00;60484.78;5025022;28;20040;-65
2021/12/09 08:51:12;;;;;;;48.63;15.30;;;;;;;-145.18;100.00;60484.78;5025154;28;20801;-65
2021/12/09 08:53:38;;;;;;;47.23;16.00;;;;;;;-145.18;100.00;60484.78;5024501;28;20740;-65
2021/12/09 08:56:04;;;;;;;41.27;14.77;;;;;;;-145.18;100.00;60484.78;5025655;28;20264;-65
2021/12/09 08:58:30;;;;;;;43.03;14.87;;;;;;;-145.18;100.00;60484.78;5026752;28;20052;-65
2021/12/09 09:00:57;;;;;;;41.20;15.50;;;;;;;-145.18;100.00;60484.78;5024604;28;20029;-65
2021/12/09 09:03:24;;;;;;;40.23;14.40;;;;;;;-145.18;100.00;60484.78;5024535;28;20260;-65
2021/12/09 09:05:50;;;;;;;43.97;14.90;;;;;;;-145.18;100.00;60484.78;5021301;28;20290;-65
2021/12/09 09:08:16;;;;;;;34.13;14.23;;;;;;;-145.18;100.00;60484.78;5024160;28;20323;-65
2021/12/09 09:10:44;;;;;;;33.03;13.07;;;;;;;-145.18;100.00;60484.78;5024667;28;20976;-65
2021/12/09 09:13:12;;;;;;;27.93;13.53;;;;;;;-145.18;100.00;60484.78;5032632;28;20026;-68
2021/12/09 09:15:39;;;;;;;31.53;13.20;;;;;;;-145.18;100.00;60484.78;5019475;28;20272;-68
2021/12/09 09:18:06;;;;;;;37.07;13.03;;;;;;;-145.18;100.00;60484.78;5024285;28;20268;-68
2021/12/09 09:20:34;;;;;;;31.60;13.13;;;;;;;-145.18;100.00;60484.78;5022171;28;20279;-68
2021/12/09 09:23:00;;;;;;;29.60;12.20;;;;;;;-145.18;100.00;60484.78;5033892;28;20272;-68
2021/12/09 09:25:29;;;;;;;31.10;13.00;;;;;;;-145.18;100.00;60484.78;5019803;28;20263;-68
2021/12/09 09:27:59;;;;;;;28.20;12.73;;;;;;;-145.18;100.00;60484.78;5024190;28;20064;-68
2021/12/09 09:30:33;;;;;;;30.37;11.47;;;;;;;-145.18;100.00;60484.78;5024330;28;20900;-68
2021/12/09 09:32:59;;;;;;;35.83;13.07;;;;;;;-145.18;100.00;60484.78;5024377;28;20298;-68
2021/12/09 09:35:24;;;;;;;30.43;13.27;;;;;;;-145.18;100.00;60484.78;5023936;28;20797;-68
2021/12/09 09:37:50;;;;;;;28.57;12.30;;;;;;;-145.18;100.00;60484.78;5024048;28;20033;-68
2021/12/09 09:40:27;;;;;;;30.53;12.30;;;;;;;-145.18;100.00;60484.78;5023809;28;20425;-68
2021/12/09 09:43:01;;;;;;;27.67;12.30;;;;;;;-145.18;100.00;60484.78;5025917;28;20088;-68
2021/12/09 09:45:26;;;;;;;31.07;12.50;;;;;;;-145.18;100.00;60484.78;5023755;28;20308;-68
2021/12/09 09:47:53;;;;;;;35.80;13.13;;;;;;;-145.18;100.00;60484.78;5023659;28;20827;-68
2021/12/09 09:50:19;;;;;;;33.50;12.87;;;;;;;-145.18;100.00;60484.78;5019672;28;20025;-68
2021/12/09 09:52:45;;;;;;;34.03;14.10;;;;;;;-145.18;100.00;60484.78;5025736;28;20887;-68
2021/12/09 09:55:14;;;;;;;32.70;14.30;;;;;;;-145.18;100.00;60484.78;5023478;28;20548;-68
2021/12/09 09:57:40;;;;;;;26.57;12.77;;;;;;;-145.18;100.00;60484.78;5023149;28;20041;-68
2021/12/09 10:00:09;;;;;;;33.07;12.57;;;;;;;-145.18;100.00;60484.78;5023649;28;20616;-68
2021/12/09 10:02:37;;;;;;;26.90;11.87;;;;;;;-145.18;100.00;60484.78;5024569;28;20109;-70
2021/12/09 10:05:06;;;;;;;29.07;12.17;;;;;;;-145.18;100.00;60484.78;5023052;28;20295;-67
2021/12/09 10:07:33;;;;;;;23.23;11.33;;;;;;;-145.18;100.00;60484.78;5022726;28;20295;-67
2021/12/09 10:09:59;;;;;;;25.27;11.80;;;;;;;-145.18;100.00;60484.78;5023117;28;20760;-67
2021/12/09 10:12:25;;;;;;;27.33;12.67;;;;;;;-145.18;100.00;60484.78;5022400;28;20271;-67
2021/12/09 10:14:53;;;;;;;23.37;10.57;;;;;;;-145.18;100.00;60484.78;5022417;28;20287;-67
2021/12/09 10:17:24;;;;;;;29.30;12.10;;;;;;;-145.18;100.00;60484.78;5022598;28;20517;-67
2021/12/09 10:19:56;;;;;;;25.43;10.90;;;;;;;-145.18;100.00;60484.78;5022736;28;20256;-67
2021/12/09 10:22:29;;;;;;;24.00;11.03;;;;;;;-145.18;100.00;60484.78;5021997;28;20296;-67
2021/12/09 10:24:56;;;;;;;23.00;11.10;;;;;;;-145.18;100.00;60484.78;5022377;28;20729;-67
2021/12/09 10:27:30;;;;;;;30.20;11.00;;;;;;;-145.18;100.00;60484.78;5022255;28;20302;-67
2021/12/09 10:30:02;;;;;;;32.03;11.37;;;;;;;-145.18;100.00;60484.78;5022306;28;20276;-67
2021/12/09 10:32:33;;;;;;;22.20;10.60;;;;;;;-145.18;100.00;60484.78;5022386;28;20279;-67
2021/12/09 10:35:07;;;;;;;23.53;11.60;;;;;;;-145.18;100.00;60484.78;5022492;28;20061;-67
2021/12/09 10:37:34;;;;;;;21.40;11.43;;;;;;;-145.18;100.00;60484.78;5021443;28;20268;-67
2021/12/09 10:40:03;;;;;;;26.97;11.23;;;;;;;-145.18;100.00;60484.78;5021534;28;20280;-66
2021/12/09 10:42:31;;;;;;;23.10;10.07;;;;;;;-145.18;100.00;60484.78;5021580;28;20276;-67
2021/12/09 10:45:01;;;;;;;21.67;10.80;;;;;;;-145.18;100.00;60484.78;5021858;28;20272;-67
2021/12/09 10:52:48;;;;;;;22.33;10.60;;;;;;;-145.18;100.00;60484.78;5021997;28;20769;-67
2021/12/09 10:55:33;;;;;;;18.43;9.30;;;;;;;-145.18;100.00;60484.78;5021917;28;20303;-67
2021/12/09 10:58:08;;;;;;;19.17;9.50;;;;;;;-145.18;100.00;60484.78;5021369;28;20283;-67
2021/12/09 11:00:39;;;;;;;24.33;10.70;;;;;;;-145.18;100.00;60484.78;5021132;28;20851;-67
2021/12/09 11:03:40;;;;;;;25.83;10.07;;;;;;;-145.18;100.00;60484.78;5019686;28;20268;-67